Time;durP1;ratioP1;P1;durP2;ratioP2;P2;SDS_P1;SDS_P2;PMS_P1;PMS_P2;Temp;Humidity;BMP_temperature;BMP_pressure;BME280_temperature;BME280_humidity;BME280_pressure;Samples;Min_cycle;Max_cycle;Signal;HPM_P1;HPM_P2
2024/01/07 00:01:32;;;;;;;16.80;7.50;;;;;;;-128.00;-1.00;-1.00;100376;1283;1038986;-30
2024/01/07 00:03:57;;;;;;;18.30;7.10;;;;;;;-128.00;-1.00;-1.00;100384;1282;1003582;-32
2024/01/07 00:06:23;;;;;;;17.90;6.10;;;;;;;-128.00;-1.00;-1.00;100269;1285;1055448;-32
2024/01/07 00:08:49;;;;;;;15.80;7.20;;;;;;;-128.00;-1.00;-1.00;100237;1282;1003240;-31
2024/01/07 00:11:15;;;;;;;16.20;7.30;;;;;;;-128.00;-1.00;-1.00;100294;1285;1003110;-30
2024/01/07 00:13:40;;;;;;;15.10;7.10;;;;;;;-128.00;-1.00;-1.00;100375;1282;1046307;-32
2024/01/07 00:16:06;;;;;;;12.70;6.10;;;;;;;-128.00;-1.00;-1.00;100394;1285;1004258;-30
2024/01/07 00:18:32;;;;;;;8.90;5.10;;;;;;;-128.00;-1.00;-1.00;100332;1283;1004052;-29
2024/01/07 00:20:57;;;;;;;17.70;6.50;;;;;;;-128.00;-1.00;-1.00;100312;1285;1003915;-32
2024/01/07 00:23:23;;;;;;;15.70;6.90;;;;;;;-128.00;-1.00;-1.00;100287;1285;1004875;-30
2024/01/07 00:25:48;;;;;;;13.90;6.30;;;;;;;-128.00;-1.00;-1.00;100327;1282;1002907;-32
2024/01/07 00:28:14;;;;;;;15.10;7.30;;;;;;;-128.00;-1.00;-1.00;100433;1283;1003607;-31
2024/01/07 00:30:39;;;;;;;13.30;6.10;;;;;;;-128.00;-1.00;-1.00;100296;1282;1003594;-32
2024/01/07 00:33:05;;;;;;;15.40;6.10;;;;;;;-128.00;-1.00;-1.00;100260;1285;1003537;-32
2024/01/07 00:35:30;;;;;;;11.00;5.10;;;;;;;-128.00;-1.00;-1.00;100377;1283;1003681;-30
2024/01/07 00:37:57;;;;;;;15.70;6.10;;;;;;;-128.00;-1.00;-1.00;100432;1283;1056345;-31
2024/01/07 00:40:23;;;;;;;10.30;5.60;;;;;;;-128.00;-1.00;-1.00;100213;1283;1003335;-32
2024/01/07 00:42:48;;;;;;;12.40;5.60;;;;;;;-128.00;-1.00;-1.00;100291;1285;1003383;-30
2024/01/07 00:45:14;;;;;;;15.00;6.20;;;;;;;-128.00;-1.00;-1.00;100313;1285;1003767;-30
2024/01/07 00:47:41;;;;;;;15.40;6.70;;;;;;;-128.00;-1.00;-1.00;100412;1283;1005112;-30
2024/01/07 00:50:07;;;;;;;10.20;5.40;;;;;;;-128.00;-1.00;-1.00;100259;1282;1004489;-33
2024/01/07 00:52:32;;;;;;;;;;;;;;;-128.00;-1.00;-1.00;100311;1282;1003124;-32
2024/01/07 00:54:58;;;;;;;20.60;5.70;;;;;;;-128.00;-1.00;-1.00;100396;1283;1003405;-32
2024/01/07 00:57:23;;;;;;;15.40;6.60;;;;;;;-128.00;-1.00;-1.00;100269;1281;1045675;-30
2024/01/07 00:59:50;;;;;;;11.70;6.10;;;;;;;-128.00;-1.00;-1.00;100317;1282;1004193;-32
2024/01/07 01:02:16;;;;;;;11.80;5.10;;;;;;;-128.00;-1.00;-1.00;100318;1284;1004640;-31
2024/01/07 01:04:41;;;;;;;14.30;5.90;;;;;;;-128.00;-1.00;-1.00;100259;1282;1003979;-31
2024/01/07 01:07:07;;;;;;;12.40;5.50;;;;;;;-128.00;-1.00;-1.00;100242;1285;1039004;-31
2024/01/07 01:09:33;;;;;;;;;;;;;;;-128.00;-1.00;-1.00;100460;1285;1004561;-31
2024/01/07 01:11:59;;;;;;;;;;;;;;;-128.00;-1.00;-1.00;100345;1283;1002889;-33
2024/01/07 01:14:24;;;;;;;;;;;;;;;-128.00;-1.00;-1.00;100239;1283;1003847;-32
2024/01/07 01:16:50;;;;;;;;;;;;;;;-128.00;-1.00;-1.00;100345;1285;1003267;-29
2024/01/07 01:19:17;;;;;;;;;;;;;;;-128.00;-1.00;-1.00;100355;1285;1003309;-29
2024/01/07 01:21:43;;;;;;;;;;;;;;;-128.00;-1.00;-1.00;100380;1283;1060735;-31
2024/01/07 01:24:09;;;;;;;;;;;;;;;-128.00;-1.00;-1.00;100307;1282;1002737;-32
2024/01/07 01:26:34;;;;;;;;;;;;;;;-128.00;-1.00;-1.00;100321;1282;1003407;-30
2024/01/07 01:29:00;;;;;;;;;;;;;;;-128.00;-1.00;-1.00;100286;1285;1038839;-30
2024/01/07 01:31:26;;;;;;;;;;;;;;;-128.00;-1.00;-1.00;100303;1287;1003886;-33
2024/01/07 01:33:51;;;;;;;;;;;;;;;-128.00;-1.00;-1.00;100293;1282;1003751;-31
2024/01/07 01:36:17;;;;;;;;;;;;;;;-128.00;-1.00;-1.00;100242;1282;1003300;-29
2024/01/07 01:38:42;;;;;;;;;;;;;;;-128.00;-1.00;-1.00;100431;1286;1003901;-29
2024/01/07 01:41:08;;;;;;;;;;;;;;;-128.00;-1.00;-1.00;100323;1286;1002867;-31
2024/01/07 01:43:34;;;;;;;;;;;;;;;-128.00;-1.00;-1.00;100379;1286;1003905;-32
2024/01/07 01:46:00;;;;;;;;;;;;;;;-128.00;-1.00;-1.00;100361;1282;1059627;-32
2024/01/07 01:48:26;;;;;;;;;;;;;;;-128.00;-1.00;-1.00;100229;1286;1004145;-32
2024/01/07 01:50:53;;;;;;;;;;;;;;;-128.00;-1.00;-1.00;100305;1285;1003691;-31
2024/01/07 01:53:19;;;;;;;;;;;;;;;-128.00;-1.00;-1.00;100385;1285;1003172;-31
2024/01/07 02:34:56;;;;;;;20.40;9.20;;;;;;;-4.16;100.00;99125.95;103604;1282;612234;-31
2024/01/07 02:37:22;;;;;;;16.60;7.60;;;;;;;-4.03;100.00;99127.95;103753;1299;89284;-32
2024/01/07 02:39:47;;;;;;;16.60;7.30;;;;;;;-4.04;100.00;99128.76;103909;1288;60462;-33
2024/01/07 02:42:13;;;;;;;;;;;;;;;-128.00;-1.00;-1.00;100381;1282;1002863;-29
2024/01/07 02:44:39;;;;;;;17.00;7.10;;;;;;;-128.00;-1.00;-1.00;100346;1283;1003957;-30
2024/01/07 02:47:05;;;;;;;18.00;8.90;;;;;;;-128.00;-1.00;-1.00;100270;1282;1003502;-33
2024/01/07 02:49:30;;;;;;;25.00;9.30;;;;;;;-128.00;-1.00;-1.00;100285;1282;1013377;-30
2024/01/07 02:51:56;;;;;;;18.70;7.60;;;;;;;-128.00;-1.00;-1.00;100287;1283;1004735;-32
2024/01/07 02:54:22;;;;;;;15.80;7.10;;;;;;;-128.00;-1.00;-1.00;100347;1282;1058691;-32
2024/01/07 02:56:47;;;;;;;16.90;8.50;;;;;;;-128.00;-1.00;-1.00;100274;1282;1003632;-33
2024/01/07 02:59:13;;;;;;;17.90;6.30;;;;;;;-128.00;-1.00;-1.00;100277;1282;1003297;-32
2024/01/07 03:01:42;;;;;;;19.30;7.70;;;;;;;-128.00;-1.00;-1.00;100324;1285;1039064;-32
2024/01/07 03:04:12;;;;;;;20.80;7.90;;;;;;;-128.00;-1.00;-1.00;100315;1282;1046657;-31
2024/01/07 03:06:38;;;;;;;17.80;8.10;;;;;;;-128.00;-1.00;-1.00;100252;1282;1059574;-32
2024/01/07 03:09:04;;;;;;;;;;;;;;;-128.00;-1.00;-1.00;100368;1282;1004366;-32
2024/01/07 03:11:29;;;;;;;17.10;6.10;;;;;;;-128.00;-1.00;-1.00;100209;1282;1003633;-30
2024/01/07 03:13:56;;;;;;;18.10;7.10;;;;;;;-128.00;-1.00;-1.00;100214;1286;1039252;-30
2024/01/07 03:16:22;;;;;;;14.30;7.30;;;;;;;-128.00;-1.00;-1.00;100304;1282;1003032;-31
2024/01/07 03:18:48;;;;;;;12.00;6.10;;;;;;;-128.00;-1.00;-1.00;100294;1282;1004921;-37
2024/01/07 03:21:26;;;;;;;15.60;7.40;;;;;;;-128.00;-1.00;-1.00;100319;1282;1002706;-33
2024/01/07 03:23:51;;;;;;;20.00;8.20;;;;;;;-128.00;-1.00;-1.00;100238;1281;1059263;-31
2024/01/07 03:26:18;;;;;;;14.70;6.90;;;;;;;-128.00;-1.00;-1.00;100309;1282;1003880;-32
2024/01/07 03:28:44;;;;;;;16.80;8.00;;;;;;;-128.00;-1.00;-1.00;100396;1282;1002556;-33
2024/01/07 03:31:12;;;;;;;18.10;8.60;;;;;;;-128.00;-1.00;-1.00;100455;1283;1004764;-31
2024/01/07 03:33:41;;;;;;;21.40;7.90;;;;;;;-128.00;-1.00;-1.00;100215;1282;1003551;-33
2024/01/07 03:36:08;;;;;;;18.50;8.20;;;;;;;-128.00;-1.00;-1.00;100223;1281;1056584;-31
2024/01/07 03:38:34;;;;;;;15.90;7.10;;;;;;;-128.00;-1.00;-1.00;100199;1282;1005377;-30
2024/01/07 03:41:00;;;;;;;18.40;7.80;;;;;;;-128.00;-1.00;-1.00;100232;1283;1003168;-30
2024/01/07 03:43:25;;;;;;;17.40;8.20;;;;;;;-128.00;-1.00;-1.00;100281;1283;1002808;-32
2024/01/07 03:45:51;;;;;;;16.90;7.40;;;;;;;-128.00;-1.00;-1.00;100246;1282;1059939;-32
2024/01/07 03:48:17;;;;;;;19.00;7.20;;;;;;;-128.00;-1.00;-1.00;100286;1282;1004888;-29
2024/01/07 03:50:43;;;;;;;20.60;8.60;;;;;;;-128.00;-1.00;-1.00;100292;1282;1012349;-31
2024/01/07 03:53:09;;;;;;;23.50;9.50;;;;;;;-128.00;-1.00;-1.00;100306;1282;1004309;-33
2024/01/07 03:55:34;;;;;;;18.90;8.70;;;;;;;-128.00;-1.00;-1.00;100259;1283;1003062;-32
2024/01/07 03:58:00;;;;;;;15.30;8.10;;;;;;;-128.00;-1.00;-1.00;100411;1282;1003446;-31
2024/01/07 04:00:26;;;;;;;18.90;8.20;;;;;;;-128.00;-1.00;-1.00;100324;1281;1058876;-34
2024/01/07 04:02:51;;;;;;;12.80;6.40;;;;;;;-128.00;-1.00;-1.00;100303;1282;1004793;-31
2024/01/07 04:05:17;;;;;;;21.90;9.30;;;;;;;-128.00;-1.00;-1.00;100290;1282;1005060;-29
2024/01/07 04:07:43;;;;;;;12.00;6.70;;;;;;;-128.00;-1.00;-1.00;100225;1282;1059105;-31
2024/01/07 04:10:09;;;;;;;22.10;9.70;;;;;;;-128.00;-1.00;-1.00;100219;1282;1003295;-29
2024/01/07 04:12:34;;;;;;;;;;;;;;;-128.00;-1.00;-1.00;100208;1282;1013469;-29
2024/01/07 04:15:00;;;;;;;18.40;8.00;;;;;;;-128.00;-1.00;-1.00;100182;1282;1004988;-31
2024/01/07 04:17:26;;;;;;;17.10;7.70;;;;;;;-128.00;-1.00;-1.00;100439;1281;1002803;-31
2024/01/07 04:19:52;;;;;;;19.30;8.00;;;;;;;-128.00;-1.00;-1.00;100245;1282;1056485;-31
2024/01/07 04:22:17;;;;;;;;;;;;;;;-128.00;-1.00;-1.00;100335;1282;1005302;-34
2024/01/07 04:24:43;;;;;;;17.30;7.60;;;;;;;-128.00;-1.00;-1.00;100335;1282;1003316;-30
2024/01/07 04:27:09;;;;;;;17.70;8.40;;;;;;;-128.00;-1.00;-1.00;100262;1282;1045701;-33
2024/01/07 04:29:35;;;;;;;17.20;7.10;;;;;;;-128.00;-1.00;-1.00;100448;1283;1003721;-30
2024/01/07 04:32:01;;;;;;;18.00;7.10;;;;;;;-128.00;-1.00;-1.00;100308;1282;1004271;-31
2024/01/07 04:34:27;;;;;;;16.70;7.50;;;;;;;-128.00;-1.00;-1.00;100232;1282;1012094;-31
2024/01/07 04:36:53;;;;;;;16.90;6.40;;;;;;;-128.00;-1.00;-1.00;100224;1282;1002836;-30
2024/01/07 04:39:18;;;;;;;14.10;6.60;;;;;;;-128.00;-1.00;-1.00;100384;1282;1002515;-32
2024/01/07 04:41:44;;;;;;;17.80;8.40;;;;;;;-128.00;-1.00;-1.00;100360;1282;1056773;-33
2024/01/07 04:44:09;;;;;;;16.60;7.00;;;;;;;-128.00;-1.00;-1.00;100287;1282;1003505;-31
2024/01/07 04:46:38;;;;;;;16.70;7.00;;;;;;;-128.00;-1.00;-1.00;100208;1282;1003011;-30
2024/01/07 04:49:03;;;;;;;13.90;6.90;;;;;;;-128.00;-1.00;-1.00;100418;1283;1046623;-32
2024/01/07 04:51:29;;;;;;;13.80;7.30;;;;;;;-128.00;-1.00;-1.00;100267;1282;1003600;-30
2024/01/07 04:53:54;;;;;;;17.20;7.80;;;;;;;-128.00;-1.00;-1.00;100184;1282;1059516;-31
2024/01/07 04:56:20;;;;;;;14.40;6.50;;;;;;;-128.00;-1.00;-1.00;100246;1282;1004235;-32
2024/01/07 04:58:46;;;;;;;14.10;6.50;;;;;;;-128.00;-1.00;-1.00;100283;1282;1046778;-32
2024/01/07 05:01:11;;;;;;;12.10;6.20;;;;;;;-128.00;-1.00;-1.00;100267;1286;1004715;-31
2024/01/07 05:03:37;;;;;;;12.80;6.60;;;;;;;-128.00;-1.00;-1.00;100301;1285;1003497;-32
2024/01/07 05:06:04;;;;;;;13.00;5.90;;;;;;;-128.00;-1.00;-1.00;100356;1282;1012899;-31
2024/01/07 05:08:29;;;;;;;;;;;;;;;-128.00;-1.00;-1.00;100292;1282;1002835;-31
2024/01/07 05:10:56;;;;;;;15.60;7.30;;;;;;;-128.00;-1.00;-1.00;100330;1281;1003180;-31
2024/01/07 05:13:21;;;;;;;;;;;;;;;-128.00;-1.00;-1.00;100365;1281;1056461;-31
2024/01/07 05:15:53;;;;;;;15.00;5.40;;;;;;;-128.00;-1.00;-1.00;100279;1282;1003004;-30
2024/01/07 05:18:21;;;;;;;15.40;5.90;;;;;;;-128.00;-1.00;-1.00;100302;1283;1013253;-32
2024/01/07 05:20:47;;;;;;;13.60;6.70;;;;;;;-128.00;-1.00;-1.00;100236;1282;1003159;-32
2024/01/07 05:23:12;;;;;;;11.50;6.10;;;;;;;-128.00;-1.00;-1.00;100153;1282;1005389;-32
2024/01/07 05:25:38;;;;;;;13.50;5.90;;;;;;;-128.00;-1.00;-1.00;100317;1282;1003693;-31
2024/01/07 05:28:04;;;;;;;13.20;5.70;;;;;;;-128.00;-1.00;-1.00;100284;1282;1003550;-30
2024/01/07 05:30:30;;;;;;;;;;;;;;;-128.00;-1.00;-1.00;100241;1282;1003886;-31
2024/01/07 05:32:55;;;;;;;15.30;6.20;;;;;;;-128.00;-1.00;-1.00;100279;1286;1002883;-32
2024/01/07 05:35:21;;;;;;;16.30;6.00;;;;;;;-128.00;-1.00;-1.00;100185;1282;1003482;-30
2024/01/07 05:37:46;;;;;;;23.10;9.40;;;;;;;-128.00;-1.00;-1.00;100375;1282;1003473;-33
2024/01/07 05:40:12;;;;;;;19.30;8.10;;;;;;;-128.00;-1.00;-1.00;100198;1282;1013626;-31
2024/01/07 05:42:38;;;;;;;16.60;6.90;;;;;;;-128.00;-1.00;-1.00;100236;1282;1003716;-29
2024/01/07 05:45:04;;;;;;;19.00;8.40;;;;;;;-128.00;-1.00;-1.00;100315;1283;1003492;-32
2024/01/07 05:47:30;;;;;;;18.60;6.10;;;;;;;-128.00;-1.00;-1.00;100308;1282;1055491;-31
2024/01/07 05:49:55;;;;;;;;;;;;;;;-128.00;-1.00;-1.00;100325;1282;1002958;-32
2024/01/07 05:52:21;;;;;;;15.10;6.30;;;;;;;-128.00;-1.00;-1.00;100283;1282;1005208;-32
2024/01/07 05:54:47;;;;;;;17.40;7.40;;;;;;;-128.00;-1.00;-1.00;100253;1282;1046980;-30
2024/01/07 05:57:12;;;;;;;16.60;7.50;;;;;;;-128.00;-1.00;-1.00;100328;1282;1002737;-32
2024/01/07 05:59:38;;;;;;;18.20;7.60;;;;;;;-128.00;-1.00;-1.00;100330;1282;1058339;-30
2024/01/07 06:02:04;;;;;;;8.80;5.00;;;;;;;-128.00;-1.00;-1.00;100260;1283;1003757;-32
2024/01/07 06:04:29;;;;;;;13.10;5.10;;;;;;;-128.00;-1.00;-1.00;100225;1285;1003045;-30
2024/01/07 06:06:55;;;;;;;15.50;7.40;;;;;;;-128.00;-1.00;-1.00;100232;1282;1004025;-32
2024/01/07 06:09:21;;;;;;;15.50;6.40;;;;;;;-128.00;-1.00;-1.00;100271;1282;1003246;-32
2024/01/07 06:11:47;;;;;;;13.50;7.10;;;;;;;-128.00;-1.00;-1.00;100225;1282;1003327;-33
2024/01/07 06:14:13;;;;;;;15.40;7.00;;;;;;;-128.00;-1.00;-1.00;100199;1282;1038999;-31
2024/01/07 06:16:38;;;;;;;13.90;6.40;;;;;;;-128.00;-1.00;-1.00;100263;1282;1003689;-31
2024/01/07 06:19:04;;;;;;;15.70;6.10;;;;;;;-128.00;-1.00;-1.00;100381;1282;1004371;-33
2024/01/07 06:21:29;;;;;;;13.10;6.30;;;;;;;-128.00;-1.00;-1.00;100275;1282;1003080;-31
2024/01/07 06:23:55;;;;;;;16.30;7.40;;;;;;;-128.00;-1.00;-1.00;100232;1282;1002723;-29
2024/01/07 06:26:21;;;;;;;14.70;7.60;;;;;;;-128.00;-1.00;-1.00;100260;1285;1004445;-30
2024/01/07 06:28:47;;;;;;;16.60;7.60;;;;;;;-128.00;-1.00;-1.00;100292;1282;1060356;-33
2024/01/07 06:31:13;;;;;;;;;;;;;;;-128.00;-1.00;-1.00;100206;1282;1004504;-31
2024/01/07 06:33:39;;;;;;;15.30;6.60;;;;;;;-128.00;-1.00;-1.00;100146;1282;1002905;-30
2024/01/07 06:36:05;;;;;;;;;;;;;;;-128.00;-1.00;-1.00;100191;1286;1038143;-31
2024/01/07 06:38:30;;;;;;;9.00;5.30;;;;;;;-128.00;-1.00;-1.00;100235;1282;1003253;-32
2024/01/07 06:41:00;;;;;;;12.90;6.10;;;;;;;-128.00;-1.00;-1.00;100226;1281;1002979;-31
2024/01/07 06:43:27;;;;;;;16.50;7.30;;;;;;;-128.00;-1.00;-1.00;100236;1282;1059472;-31
2024/01/07 06:45:53;;;;;;;21.60;9.10;;;;;;;-128.00;-1.00;-1.00;100297;1283;1004725;-31
2024/01/07 06:48:19;;;;;;;20.20;9.60;;;;;;;-128.00;-1.00;-1.00;100075;1282;1003506;-34
2024/01/07 06:50:45;;;;;;;20.80;8.60;;;;;;;-128.00;-1.00;-1.00;100381;1282;1003583;-35
2024/01/07 06:53:11;;;;;;;19.70;8.70;;;;;;;-128.00;-1.00;-1.00;100291;1282;1002674;-31
2024/01/07 06:55:36;;;;;;;15.30;7.10;;;;;;;-128.00;-1.00;-1.00;100216;1282;1004136;-32
2024/01/07 06:58:02;;;;;;;15.60;8.60;;;;;;;-128.00;-1.00;-1.00;100232;1283;1003416;-30
2024/01/07 07:00:28;;;;;;;18.60;8.00;;;;;;;-128.00;-1.00;-1.00;100270;1282;1003093;-31
2024/01/07 07:02:54;;;;;;;19.20;9.20;;;;;;;-128.00;-1.00;-1.00;100283;1282;1003112;-31
2024/01/07 07:05:19;;;;;;;21.00;8.70;;;;;;;-128.00;-1.00;-1.00;100237;1282;1055698;-31
2024/01/07 07:07:45;;;;;;;15.70;7.60;;;;;;;-128.00;-1.00;-1.00;100129;1288;1003277;-31
2024/01/07 07:10:12;;;;;;;19.10;8.80;;;;;;;-128.00;-1.00;-1.00;100337;1287;1003793;-30
2024/01/07 07:12:37;;;;;;;14.50;6.80;;;;;;;-128.00;-1.00;-1.00;100354;1283;1004135;-31
2024/01/07 07:15:03;;;;;;;21.50;8.80;;;;;;;-128.00;-1.00;-1.00;100256;1283;1063042;-29
2024/01/07 07:17:29;;;;;;;18.70;8.80;;;;;;;-128.00;-1.00;-1.00;100256;1282;1002737;-29
2024/01/07 07:19:55;;;;;;;12.50;6.90;;;;;;;-128.00;-1.00;-1.00;100218;1283;1004517;-31
2024/01/07 07:22:20;;;;;;;13.10;7.20;;;;;;;-128.00;-1.00;-1.00;100230;1282;1038596;-34
2024/01/07 07:24:46;;;;;;;23.10;9.00;;;;;;;-128.00;-1.00;-1.00;100222;1282;1005012;-31
2024/01/07 07:27:11;;;;;;;24.60;10.00;;;;;;;-128.00;-1.00;-1.00;100270;1282;1003810;-31
2024/01/07 07:29:37;;;;;;;22.80;10.50;;;;;;;-128.00;-1.00;-1.00;100258;1282;1059194;-29
2024/01/07 07:32:03;;;;;;;;;;;;;;;-128.00;-1.00;-1.00;100278;1282;1003096;-33
2024/01/07 07:34:29;;;;;;;24.90;10.00;;;;;;;-128.00;-1.00;-1.00;100329;1287;1003242;-31
2024/01/07 07:36:55;;;;;;;;;;;;;;;-128.00;-1.00;-1.00;100369;1283;1005006;-30
2024/01/07 07:39:21;;;;;;;32.30;12.80;;;;;;;-128.00;-1.00;-1.00;100251;1283;1055782;-31
2024/01/07 07:41:48;;;;;;;42.90;14.30;;;;;;;-128.00;-1.00;-1.00;100230;1288;1003017;-31
2024/01/07 07:44:13;;;;;;;38.30;10.90;;;;;;;-128.00;-1.00;-1.00;100226;1283;1003382;-31
2024/01/07 07:46:39;;;;;;;29.70;11.50;;;;;;;-128.00;-1.00;-1.00;100265;1283;1004639;-30
2024/01/07 07:49:05;;;;;;;26.40;11.90;;;;;;;-128.00;-1.00;-1.00;100233;1282;1060305;-30
2024/01/07 07:51:31;;;;;;;29.40;10.20;;;;;;;-128.00;-1.00;-1.00;100274;1282;1002780;-32
2024/01/07 07:53:57;;;;;;;;;;;;;;;-128.00;-1.00;-1.00;100290;1283;1005460;-32
2024/01/07 07:56:23;;;;;;;30.40;11.30;;;;;;;-128.00;-1.00;-1.00;100211;1282;1039342;-30
2024/01/07 07:58:48;;;;;;;36.10;11.70;;;;;;;-128.00;-1.00;-1.00;100247;1282;1003953;-30
2024/01/07 08:01:14;;;;;;;45.90;15.70;;;;;;;-128.00;-1.00;-1.00;100333;1283;1003189;-33
2024/01/07 08:03:40;;;;;;;;;;;;;;;-128.00;-1.00;-1.00;100251;1282;1059443;-32
2024/01/07 08:06:06;;;;;;;27.40;10.90;;;;;;;-128.00;-1.00;-1.00;100216;1283;1004887;-30
2024/01/07 08:08:32;;;;;;;;;;;;;;;-128.00;-1.00;-1.00;100224;1282;1045926;-30
2024/01/07 08:10:57;;;;;;;32.00;13.10;;;;;;;-128.00;-1.00;-1.00;100295;1282;1004523;-31
2024/01/07 08:13:23;;;;;;;23.70;10.10;;;;;;;-128.00;-1.00;-1.00;100168;1288;1003104;-33
2024/01/07 08:15:49;;;;;;;39.30;14.70;;;;;;;-128.00;-1.00;-1.00;100236;1282;1003837;-29
2024/01/07 08:18:15;;;;;;;;;;;;;;;-128.00;-1.00;-1.00;100349;1287;1003008;-30
2024/01/07 08:20:41;;;;;;;36.00;14.70;;;;;;;-128.00;-1.00;-1.00;100271;1282;1002820;-31
2024/01/07 08:23:07;;;;;;;40.30;13.50;;;;;;;-128.00;-1.00;-1.00;100284;1282;1003795;-32
2024/01/07 08:25:32;;;;;;;24.70;9.90;;;;;;;-128.00;-1.00;-1.00;100280;1281;1003241;-30
2024/01/07 08:27:58;;;;;;;22.30;10.10;;;;;;;-128.00;-1.00;-1.00;100161;1282;1012682;-32
2024/01/07 08:30:23;;;;;;;42.80;14.80;;;;;;;-128.00;-1.00;-1.00;100253;1283;1002907;-32
2024/01/07 08:32:49;;;;;;;30.10;11.00;;;;;;;-128.00;-1.00;-1.00;100180;1283;1003063;-32
2024/01/07 08:35:15;;;;;;;32.70;11.80;;;;;;;-128.00;-1.00;-1.00;100312;1283;1002797;-30
2024/01/07 08:37:40;;;;;;;28.80;11.70;;;;;;;-128.00;-1.00;-1.00;100217;1282;1013874;-30
2024/01/07 08:40:09;;;;;;;32.00;13.20;;;;;;;-128.00;-1.00;-1.00;100263;1282;1005033;-29
2024/01/07 08:42:36;;;;;;;20.50;9.10;;;;;;;-128.00;-1.00;-1.00;100308;1283;1003229;-31
2024/01/07 08:45:03;;;;;;;33.90;12.80;;;;;;;-128.00;-1.00;-1.00;100344;1282;1003691;-31
2024/01/07 08:47:31;;;;;;;36.10;12.20;;;;;;;-128.00;-1.00;-1.00;100257;1282;1002213;-33
2024/01/07 08:49:57;;;;;;;28.90;12.50;;;;;;;-128.00;-1.00;-1.00;100183;1285;1003314;-33
2024/01/07 08:52:24;;;;;;;31.90;13.10;;;;;;;-128.00;-1.00;-1.00;100272;1282;1003620;-32
2024/01/07 08:54:49;;;;;;;36.30;14.40;;;;;;;-128.00;-1.00;-1.00;100285;1282;1003040;-32
2024/01/07 08:57:15;;;;;;;30.00;13.60;;;;;;;-128.00;-1.00;-1.00;100319;1283;1002486;-33
2024/01/07 08:59:40;;;;;;;18.90;9.30;;;;;;;-128.00;-1.00;-1.00;100260;1285;1004747;-31
2024/01/07 09:02:06;;;;;;;19.30;8.60;;;;;;;-128.00;-1.00;-1.00;100202;1282;1003735;-31
2024/01/07 09:04:33;;;;;;;18.90;8.50;;;;;;;-128.00;-1.00;-1.00;100258;1288;1004851;-32
2024/01/07 09:06:59;;;;;;;21.10;8.70;;;;;;;-128.00;-1.00;-1.00;100240;1282;1046696;-31
2024/01/07 09:09:24;;;;;;;22.70;8.10;;;;;;;-128.00;-1.00;-1.00;100282;1283;1003177;-31
2024/01/07 09:11:52;;;;;;;33.10;11.60;;;;;;;-128.00;-1.00;-1.00;100262;1282;1003081;-31
2024/01/07 09:14:17;;;;;;;19.40;9.60;;;;;;;-128.00;-1.00;-1.00;100138;1282;1012343;-33
2024/01/07 09:16:43;;;;;;;20.40;9.20;;;;;;;-128.00;-1.00;-1.00;100248;1287;1003657;-32
2024/01/07 09:19:08;;;;;;;33.20;13.20;;;;;;;-128.00;-1.00;-1.00;100231;1283;1004398;-30
2024/01/07 09:21:34;;;;;;;31.20;13.20;;;;;;;-128.00;-1.00;-1.00;100285;1287;1003584;-32
2024/01/07 09:24:00;;;;;;;27.90;10.20;;;;;;;-128.00;-1.00;-1.00;100293;1283;1013626;-32
2024/01/07 09:26:25;;;;;;;35.80;13.00;;;;;;;-128.00;-1.00;-1.00;100274;1282;1004852;-33
2024/01/07 09:28:51;;;;;;;30.90;11.20;;;;;;;-128.00;-1.00;-1.00;100283;1282;1003881;-33
2024/01/07 09:31:17;;;;;;;19.40;8.90;;;;;;;-128.00;-1.00;-1.00;100253;1282;1003221;-31
2024/01/07 09:33:43;;;;;;;22.60;9.50;;;;;;;-128.00;-1.00;-1.00;100262;1282;1003552;-32
2024/01/07 09:36:08;;;;;;;26.20;11.40;;;;;;;-128.00;-1.00;-1.00;100284;1282;1002409;-32
2024/01/07 09:38:34;;;;;;;27.90;12.50;;;;;;;-128.00;-1.00;-1.00;100229;1282;1003517;-33
2024/01/07 09:40:59;;;;;;;23.60;10.40;;;;;;;-128.00;-1.00;-1.00;100280;1283;1002778;-32
2024/01/07 09:43:25;;;;;;;25.70;11.20;;;;;;;-128.00;-1.00;-1.00;100319;1288;1003058;-31
2024/01/07 09:45:50;;;;;;;25.20;10.80;;;;;;;-128.00;-1.00;-1.00;100232;1282;1004978;-30
2024/01/07 09:48:16;;;;;;;36.70;14.40;;;;;;;-128.00;-1.00;-1.00;100244;1282;1003339;-31
2024/01/07 09:50:42;;;;;;;38.60;14.80;;;;;;;-128.00;-1.00;-1.00;100263;1282;1003080;-32
2024/01/07 09:53:11;;;;;;;29.70;12.60;;;;;;;-128.00;-1.00;-1.00;100260;1287;1055945;-29
2024/01/07 09:55:40;;;;;;;19.10;10.20;;;;;;;-128.00;-1.00;-1.00;100261;1282;1058670;-32
2024/01/07 09:58:06;;;;;;;23.00;10.30;;;;;;;-128.00;-1.00;-1.00;100409;1282;1013462;-31
2024/01/07 10:00:31;;;;;;;26.90;11.70;;;;;;;-128.00;-1.00;-1.00;100224;1282;1002830;-33
2024/01/07 10:02:57;;;;;;;23.20;9.20;;;;;;;-128.00;-1.00;-1.00;100259;1283;1004630;-34
2024/01/07 10:05:22;;;;;;;41.80;16.30;;;;;;;-128.00;-1.00;-1.00;100282;1282;1002772;-33
2024/01/07 10:07:48;;;;;;;38.70;14.30;;;;;;;-128.00;-1.00;-1.00;100262;1283;1002963;-30
2024/01/07 10:10:15;;;;;;;42.30;14.80;;;;;;;-128.00;-1.00;-1.00;100329;1283;1004029;-30
2024/01/07 10:12:40;;;;;;;26.10;11.70;;;;;;;-128.00;-1.00;-1.00;100229;1282;1045971;-33
2024/01/07 10:15:07;;;;;;;34.80;13.90;;;;;;;-128.00;-1.00;-1.00;100351;1282;1003525;-32
2024/01/07 10:17:33;;;;;;;56.10;18.10;;;;;;;-128.00;-1.00;-1.00;100295;1286;1003046;-33
2024/01/07 10:19:58;;;;;;;69.90;21.20;;;;;;;-128.00;-1.00;-1.00;100262;1286;1003118;-32
2024/01/07 10:22:24;;;;;;;62.80;17.20;;;;;;;-128.00;-1.00;-1.00;100146;1288;1041010;-30
2024/01/07 10:24:51;;;;;;;45.20;15.00;;;;;;;-128.00;-1.00;-1.00;100285;1282;1003251;-31
2024/01/07 10:27:17;;;;;;;65.90;21.20;;;;;;;-128.00;-1.00;-1.00;100140;1283;1004123;-31
2024/01/07 10:29:43;;;;;;;33.10;13.60;;;;;;;-128.00;-1.00;-1.00;100319;1282;1004931;-33
2024/01/07 10:32:08;;;;;;;44.30;16.50;;;;;;;-128.00;-1.00;-1.00;100350;1283;1013181;-29
2024/01/07 10:34:35;;;;;;;62.00;18.80;;;;;;;-128.00;-1.00;-1.00;100241;1288;1003221;-30
2024/01/07 10:37:02;;;;;;;42.20;13.90;;;;;;;-128.00;-1.00;-1.00;100262;1284;1003760;-31
2024/01/07 10:39:28;;;;;;;50.00;16.20;;;;;;;-128.00;-1.00;-1.00;100233;1283;1002735;-31
2024/01/07 10:41:57;;;;;;;41.50;16.80;;;;;;;-128.00;-1.00;-1.00;99999;1283;1003810;-31
2024/01/07 10:44:35;;;;;;;46.20;16.30;;;;;;;-128.00;-1.00;-1.00;100278;1283;1058492;-32
2024/01/07 10:47:01;;;;;;;30.30;12.30;;;;;;;-128.00;-1.00;-1.00;100267;1283;1012792;-33
2024/01/07 10:49:27;;;;;;;32.00;13.60;;;;;;;-128.00;-1.00;-1.00;100260;1282;1003572;-33
2024/01/07 10:52:04;;;;;;;26.20;11.30;;;;;;;-128.00;-1.00;-1.00;100263;1283;1003332;-30
2024/01/07 10:54:30;;;;;;;28.00;11.60;;;;;;;-128.00;-1.00;-1.00;100348;1283;1059347;-30
2024/01/07 10:56:58;;;;;;;21.80;9.40;;;;;;;-128.00;-1.00;-1.00;100220;1288;1002970;-32
2024/01/07 10:59:23;;;;;;;22.70;11.40;;;;;;;-128.00;-1.00;-1.00;100300;1282;1003256;-29
2024/01/07 11:01:49;;;;;;;33.10;13.70;;;;;;;-128.00;-1.00;-1.00;100229;1284;1003404;-31
2024/01/07 11:04:30;;;;;;;51.70;21.10;;;;;;;-128.00;-1.00;-1.00;100201;1282;1046695;-30
2024/01/07 11:07:17;;;;;;;31.60;13.10;;;;;;;-128.00;-1.00;-1.00;100211;1283;1059306;-30
2024/01/07 11:09:58;;;;;;;38.80;16.40;;;;;;;-128.00;-1.00;-1.00;100208;1286;1055125;-30
2024/01/07 11:12:23;;;;;;;28.20;12.30;;;;;;;-128.00;-1.00;-1.00;100193;1282;1058992;-32
2024/01/07 11:14:52;;;;;;;30.10;13.40;;;;;;;-128.00;-1.00;-1.00;100309;1282;1003090;-32
2024/01/07 11:17:41;;;;;;;34.10;15.70;;;;;;;-128.00;-1.00;-1.00;100278;1288;1046861;-32
2024/01/07 11:20:19;;;;;;;25.40;11.60;;;;;;;-128.00;-1.00;-1.00;100268;1283;1059112;-30
2024/01/07 11:22:44;;;;;;;27.90;12.80;;;;;;;-128.00;-1.00;-1.00;100274;1283;1056995;-32
2024/01/07 11:25:29;;;;;;;29.40;13.00;;;;;;;-128.00;-1.00;-1.00;100244;1282;1004219;-30
2024/01/07 11:27:56;;;;;;;34.90;14.10;;;;;;;-128.00;-1.00;-1.00;100252;1287;1038129;-31
2024/01/07 11:30:22;;;;;;;42.30;16.00;;;;;;;-128.00;-1.00;-1.00;100375;1283;1004398;-32
2024/01/07 11:32:48;;;;;;;38.00;15.30;;;;;;;-128.00;-1.00;-1.00;100315;1287;1003209;-33
2024/01/07 11:35:13;;;;;;;34.50;12.30;;;;;;;-128.00;-1.00;-1.00;100256;1285;1057864;-33
2024/01/07 11:37:39;;;;;;;36.50;13.90;;;;;;;-128.00;-1.00;-1.00;100167;1283;1003852;-31
2024/01/07 11:40:06;;;;;;;28.90;11.40;;;;;;;-128.00;-1.00;-1.00;100213;1287;1004177;-31
2024/01/07 11:42:32;;;;;;;30.80;12.40;;;;;;;-128.00;-1.00;-1.00;100265;1287;1003799;-32
2024/01/07 11:44:58;;;;;;;39.30;15.50;;;;;;;-128.00;-1.00;-1.00;100330;1286;1003095;-31
2024/01/07 11:47:25;;;;;;;37.30;17.00;;;;;;;-128.00;-1.00;-1.00;100301;1285;1003094;-32
2024/01/07 11:49:51;;;;;;;34.00;13.90;;;;;;;-128.00;-1.00;-1.00;100319;1283;1013754;-30
2024/01/07 11:52:17;;;;;;;40.40;12.70;;;;;;;-128.00;-1.00;-1.00;100277;1287;1002952;-34